Time;durP1;ratioP1;P1;durP2;ratioP2;P2;SDS_P1;SDS_P2;PMS_P1;PMS_P2;Temp;Humidity;BMP_temperature;BMP_pressure;BME280_temperature;BME280_humidity;BME280_pressure;Samples;Min_cycle;Max_cycle;Signal;HPM_P1;HPM_P2
2022/08/11 00:01:08;;;;;;;;;;;;;;;24.30;74.32;97137.70;626771;226;64979;-65
2022/08/11 00:03:36;;;;;;;;;;;;;;;24.30;74.33;97139.59;626797;226;67043;-65
2022/08/11 00:06:04;;;;;;;;;;;;;;;24.30;74.36;97139.59;626796;226;64397;-65
2022/08/11 00:08:32;;;;;;;;;;;;;;;24.30;74.32;97134.22;626844;226;65045;-65
2022/08/11 00:11:01;;;;;;;;;;;;;;;24.30;74.32;97131.53;626814;226;67449;-65
2022/08/11 00:13:33;;;;;;;;;;;;;;;24.30;74.30;97128.84;626716;226;67561;-65
2022/08/11 00:16:01;;;;;;;;;;;;;;;24.30;74.30;97131.53;626793;226;62848;-65
2022/08/11 00:18:30;;;;;;;;;;;;;;;24.29;74.30;97130.73;622731;226;64887;-65
2022/08/11 00:20:59;;;;;;;;;;;;;;;24.30;74.33;97123.47;622244;228;65653;-65
2022/08/11 00:23:27;;;;;;;;;;;;;;;24.30;74.33;97123.47;622173;228;65108;-65
2022/08/11 00:25:55;;;;;;;;;;;;;;;24.31;74.32;97119.72;622179;228;64759;-65
2022/08/11 00:28:30;;;;;;;;;;;;;;;24.30;74.34;97115.42;622189;228;64770;-65
2022/08/11 00:31:05;;;;;;;;;;;;;;;24.29;74.37;97117.31;621961;227;65006;-65
2022/08/11 00:33:35;;;;;;;;;;;;;;;24.30;74.33;97120.79;621501;228;65391;-65
2022/08/11 00:36:03;;;;;;;;;;;;;;;24.30;74.34;97126.16;622241;228;64942;-65
2022/08/11 00:38:32;;;;;;;;;;;;;;;24.30;74.38;97128.84;622091;228;64984;-65
2022/08/11 00:41:17;;;;;;;;;;;;;;;24.29;74.35;97128.05;622172;228;65010;-65
2022/08/11 00:43:58;;;;;;;;;;;;;;;24.30;74.37;97123.47;622204;228;67311;-65
2022/08/11 00:46:28;;;;;;;;;;;;;;;24.30;74.37;97118.10;621944;227;64911;-65
2022/08/11 00:49:13;;;;;;;;;;;;;;;24.30;74.37;97120.79;622167;228;64916;-65
2022/08/11 00:51:42;;;;;;;;;;;;;;;24.29;74.40;97117.31;622258;228;64793;-66
2022/08/11 00:54:14;;;;;;;;;;;;;;;24.23;74.40;97106.94;622098;227;64886;-66
2022/08/11 00:57:00;;;;;;;;;;;;;;;24.29;74.40;97122.69;622193;228;67397;-66
2022/08/11 00:59:29;;;;;;;;;;;;;;;24.29;74.39;97120.00;622153;228;64776;-65
2022/08/11 01:02:14;;;;;;;;;;;;;;;24.28;74.34;97125.64;610835;227;63678;-65
2022/08/11 01:04:47;;;;;;;;;;;;;;;24.29;74.37;97132.63;622161;228;67440;-64
2022/08/11 01:07:32;;;;;;;;;;;;;;;24.29;74.38;97127.26;622197;228;64625;-64
2022/08/11 01:10:04;;;;;;;;;;;;;;;24.28;74.37;97131.02;622208;228;63173;-64
2022/08/11 01:12:34;;;;;;;;;;;;;;;24.28;74.36;97121.09;611667;227;64865;-64
2022/08/11 01:15:22;;;;;;;;;;;;;;;24.28;74.36;97131.84;622047;227;68001;-64
2022/08/11 01:18:07;;;;;;;;;;;;;;;24.28;74.40;97121.09;624925;226;65109;-64
2022/08/11 01:20:55;;;;;;;;;;;;;;;24.29;74.40;97127.26;626801;226;65023;-65
2022/08/11 01:23:40;;;;;;;;;;;;;;;24.29;74.43;97122.69;626858;226;66696;-65
2022/08/11 01:26:16;;;;;;;;;;;;;;;24.27;74.41;97114.11;626828;226;65130;-65
2022/08/11 01:28:45;;;;;;;;;;;;;;;24.29;74.41;97113.83;626797;226;66913;-65
2022/08/11 01:31:30;;;;;;;;;;;;;;;24.29;74.42;97111.14;626239;226;64829;-65
2022/08/11 01:34:19;;;;;;;;;;;;;;;24.28;74.40;97110.36;626850;226;65104;-65
2022/08/11 01:36:49;;;;;;;;;;;;;;;24.28;74.40;97117.59;626799;226;66788;-65
2022/08/11 01:39:27;;;;;;;;;;;;;;;24.28;74.42;97112.22;626806;226;64447;-65
2022/08/11 01:44:52;;;;;;;;;;;;;;;24.28;74.39;97112.22;626838;226;66875;-65
2022/08/11 01:50:11;;;;;;;;;;;;;;;24.28;74.40;97114.91;626821;226;62956;-65
2022/08/11 01:52:43;;;;;;;;;;;;;;;24.28;74.41;97112.22;626700;226;66637;-65
2022/08/11 01:55:16;;;;;;;;;;;;;;;24.28;74.44;97112.22;626462;226;67047;-65
2022/08/11 01:57:45;;;;;;;;;;;;;;;24.28;74.46;97112.22;626698;226;70230;-65
2022/08/11 02:00:14;;;;;;;;;;;;;;;24.28;74.43;97114.91;626755;226;67212;-65
2022/08/11 02:02:46;;;;;;;;;;;;;;;24.28;74.40;97113.04;626800;226;66825;-65
2022/08/11 02:05:31;;;;;;;;;;;;;;;24.29;74.38;97109.25;626794;226;62826;-65
2022/08/11 02:08:10;;;;;;;;;;;;;;;24.28;74.40;97107.67;626802;226;67518;-65
2022/08/11 02:13:38;;;;;;;;;;;;;;;24.28;74.43;97106.84;626756;226;63015;-65
2022/08/11 02:16:07;;;;;;;;;;;;;;;24.28;74.39;97109.53;626671;226;64848;-65
2022/08/11 02:24:15;;;;;;;;;;;;;;;24.27;74.38;97111.42;626774;226;67147;-65
2022/08/11 02:26:50;;;;;;;;;;;;;;;24.27;74.37;97116.80;626690;226;71309;-66
2022/08/11 02:29:25;;;;;;;;;;;;;;;24.27;74.32;97124.06;626392;226;65148;-65
2022/08/11 02:34:44;;;;;;;;;;;;;;;24.28;74.37;97122.95;626791;226;67005;-65
2022/08/11 02:37:16;;;;;;;;;;;;;;;24.27;74.36;97119.48;626760;226;65160;-65
2022/08/11 02:39:51;;;;;;;;;;;;;;;24.28;74.36;97122.95;626778;226;67254;-65
2022/08/11 02:42:23;;;;;;;;;;;;;;;24.27;74.38;97124.84;622284;226;66742;-65
2022/08/11 02:44:52;;;;;;;;;;;;;;;24.28;74.36;97126.47;615654;226;62921;-65
2022/08/11 02:47:37;;;;;;;;;;;;;;;24.28;74.34;97125.64;626827;226;67370;-65
2022/08/11 02:50:21;;;;;;;;;;;;;;;24.28;74.34;97122.95;626585;226;67086;-65
2022/08/11 02:52:51;;;;;;;;;;;;;;;24.27;74.37;97130.22;626299;226;65140;-65
2022/08/11 02:55:20;;;;;;;;;;;;;;;24.27;74.35;97124.06;626757;226;67056;-65
2022/08/11 02:57:49;;;;;;;;;;;;;;;24.28;74.34;97125.64;626722;226;72673;-65
2022/08/11 03:00:17;;;;;;;;;;;;;;;24.27;74.38;97124.84;626175;226;64884;-65
2022/08/11 03:02:46;;;;;;;;;;;;;;;24.27;74.40;97135.59;626826;226;67086;-65
2022/08/11 03:05:27;;;;;;;;;;;;;;;24.27;74.41;97130.22;626783;226;67092;-65
2022/08/11 03:08:13;;;;;;;;;;;;;;;24.27;74.37;97132.91;626723;226;62827;-65
2022/08/11 03:17:05;;;;;;;;;;;;;;;24.27;74.34;97127.53;625925;226;65241;-66
2022/08/11 03:19:46;;;;;;;;;;;;;;;24.26;74.34;97125.95;604139;233;64834;-66
2022/08/11 03:22:30;;;;;;;;;;;;;;;24.27;74.42;97121.38;618049;227;64883;-66
2022/08/11 03:25:00;;;;;;;;;;;;;;;24.26;74.42;97123.27;622186;228;62948;-66
2022/08/11 03:27:38;;;;;;;;;;;;;;;24.26;74.42;97117.89;622142;227;67113;-66
2022/08/11 03:30:13;;;;;;;;;;;;;;;24.26;74.45;97123.27;622127;227;67001;-66
2022/08/11 03:35:41;;;;;;;;;;;;;;;24.25;74.46;97124.33;622187;228;67181;-66
2022/08/11 03:38:10;;;;;;;;;;;;;;;24.26;74.44;97125.16;622091;227;67010;-66
2022/08/11 03:43:32;;;;;;;;;;;;;;;24.27;74.46;97129.43;622182;228;64933;-66
2022/08/11 03:46:07;;;;;;;;;;;;;;;24.27;74.41;97130.22;622186;228;66907;-66
2022/08/11 03:48:40;;;;;;;;;;;;;;;24.26;74.44;97127.84;622195;227;65253;-66
2022/08/11 03:51:24;;;;;;;;;;;;;;;24.25;74.42;97121.65;622203;228;64906;-66
2022/08/11 03:54:02;;;;;;;;;;;;;;;24.26;74.39;97131.32;622209;228;64842;-66
2022/08/11 03:56:40;;;;;;;;;;;;;;;24.26;74.46;97128.63;622171;228;65299;-67
2022/08/11 03:59:27;;;;;;;;;;;;;;;24.27;74.45;97129.43;622189;228;64796;-66
2022/08/11 04:02:05;;;;;;;;;;;;;;;24.26;74.43;97134.01;622228;228;64588;-67
2022/08/11 04:04:37;;;;;;;;;;;;;;;24.26;74.42;97122.47;622185;228;65987;-66
2022/08/11 04:07:19;;;;;;;;;;;;;;;24.26;74.41;97135.90;622205;228;67184;-66
2022/08/11 04:09:48;;;;;;;;;;;;;;;24.25;74.39;97135.08;622214;228;67114;-67
2022/08/11 04:12:20;;;;;;;;;;;;;;;24.26;74.41;97135.90;622190;228;65089;-66
2022/08/11 04:18:02;;;;;;;;;;;;;;;24.26;74.42;97131.32;624996;226;66797;-65
2022/08/11 04:20:31;;;;;;;;;;;;;;;24.25;74.42;97127.02;626794;226;65109;-65
2022/08/11 04:23:16;;;;;;;;;;;;;;;24.27;74.45;97134.80;626786;226;65967;-65
2022/08/11 04:25:52;;;;;;;;;;;;;;;24.25;74.45;97135.08;626777;226;64809;-65
2022/08/11 04:28:37;;;;;;;;;;;;;;;24.25;74.41;97127.02;626871;226;65115;-65
2022/08/11 04:31:07;;;;;;;;;;;;;;;24.25;74.39;97135.08;626809;226;67130;-65
2022/08/11 04:33:52;;;;;;;;;;;;;;;24.25;74.39;97139.66;626794;226;66997;-65
2022/08/11 04:37:31;;;;;;;;;;;;;;;24.26;74.41;97141.27;626781;226;65089;-65
2022/08/11 04:39:08;;;;;;;;;;;;;;;24.24;74.36;97146.92;625738;226;68192;-65
2022/08/11 04:44:59;;;;;;;;;;;;;;;24.24;74.38;97146.92;626794;226;65303;-65
2022/08/11 05:02:00;;;;;;;;;;;;;;;24.24;74.32;97154.18;626816;226;65111;-65
2022/08/11 05:07:56;;;;;;;;;;;;;;;24.22;74.33;97148.29;626650;226;65688;-64
2022/08/11 05:10:25;;;;;;;;;;;;;;;24.25;74.13;97153.08;626319;226;62826;-64
2022/08/11 05:27:09;;;;;;;;;;;;;;;24.21;72.87;97146.70;625773;226;65026;-64
2022/08/11 05:35:00;;;;;;;;;;;;;;;24.12;76.98;97147.34;626835;226;62683;-65
2022/08/11 05:37:32;;;;;;;;;;;;;;;24.12;77.12;97144.66;626773;226;64272;-65
2022/08/11 05:56:43;;;;;;;;;;;;;;;24.11;77.77;97143.05;626794;226;65312;-64
2022/08/11 05:59:15;;;;;;;;;;;;;;;24.11;77.88;97143.05;626348;226;62685;-64
2022/08/11 06:01:43;;;;;;;;;;;;;;;24.11;77.91;97142.25;626290;226;66965;-64
2022/08/11 06:04:15;;;;;;;;;;;;;;;24.11;77.92;97142.25;625667;226;64650;-64
2022/08/11 06:06:59;;;;;;;;;;;;;;;24.10;78.02;97144.14;619596;229;64909;-64
2022/08/11 06:09:28;;;;;;;;;;;;;;;24.10;77.97;97141.45;619459;229;67110;-64
2022/08/11 06:11:57;;;;;;;;;;;;;;;24.09;77.89;97139.88;619457;229;66651;-67
2022/08/11 06:14:25;;;;;;;;;;;;;;;24.08;76.63;97143.63;619595;229;62778;-66
2022/08/11 06:16:54;;;;;;;;;;;;;;;24.09;77.22;97142.55;618591;229;67477;-65
2022/08/11 06:19:23;;;;;;;;;;;;;;;24.08;77.54;97143.63;615099;230;67164;-66
2022/08/11 06:21:52;;;;;;;;;;;;;;;24.08;77.74;97140.94;615051;230;65078;-67
2022/08/11 06:24:19;;;;;;;;;;;;;;;24.10;77.82;97143.34;614927;230;67250;-63
2022/08/11 06:26:48;;;;;;;;;;;;;;;24.10;77.86;97146.03;615163;230;65007;-68
2022/08/11 06:29:17;;;;;;;;;;;;;;;24.09;77.81;97145.24;614973;230;65275;-65
2022/08/11 06:31:52;;;;;;;;;;;;;;;24.10;77.79;97140.66;614978;230;67320;-64
2022/08/11 06:34:31;;;;;;;;;;;;;;;24.10;75.84;97143.34;614772;229;67096;-63
2022/08/11 06:37:17;;;;;;;;;;;;;;;24.10;76.15;97146.03;615056;230;62751;-64
2022/08/11 06:39:49;;;;;;;;;;;;;;;24.09;75.70;97141.73;615022;230;64490;-64
2022/08/11 06:42:18;;;;;;;;;;;;;;;24.09;75.40;97133.67;615135;230;64473;-64
2022/08/11 06:44:48;;;;;;;;;;;;;;;24.10;75.25;97136.09;613193;230;65239;-64
2022/08/11 06:47:17;;;;;;;;;;;;;;;24.09;75.13;97131.81;614686;229;67331;-64
2022/08/11 06:52:33;;;;;;;;;;;;;;;24.09;74.95;97134.50;614947;230;64938;-63
2022/08/11 06:55:07;;;;;;;;;;;;;;;24.09;74.92;97128.31;614992;229;64797;-63
2022/08/11 07:00:28;;;;;;;;;;;;;;;24.10;73.79;97130.72;615058;230;62916;-63
2022/08/11 07:03:09;;;;;;;;;;;;;;;24.09;72.48;97126.45;615038;230;67229;-63
2022/08/11 07:05:43;;;;;;;;;;;;;;;24.10;70.82;97129.92;615140;230;48956;-64
2022/08/11 07:16:53;;;;;;;;;;;;;;;24.10;75.23;97128.03;615062;229;65358;-62
2022/08/11 07:30:35;;;;;;;;;;;;;;;24.09;75.83;97118.39;615088;230;67619;-63
2022/08/11 07:33:03;;;;;;;;;;;;;;;24.10;76.18;97124.55;615047;230;65976;-63
2022/08/11 07:35:38;;;;;;;;;;;;;;;24.09;76.26;97123.76;615042;230;67203;-63
2022/08/11 07:38:07;;;;;;;;;;;;;;;24.11;76.56;97134.20;614921;229;64616;-66
2022/08/11 07:40:35;;;;;;;;;;;;;;;24.11;76.64;97126.14;615044;230;62788;-63
2022/08/11 07:43:03;;;;;;;;;;;;;;;24.11;76.77;97129.62;614962;230;65611;-63
2022/08/11 07:53:51;;;;;;;;;;;;;;;24.11;77.19;97115.41;615038;230;67065;-64
2022/08/11 07:56:19;;;;;;;;;;;;;;;24.11;77.24;97116.19;614963;230;63040;-66
2022/08/11 08:18:10;;;;;;;;;;;;;;;24.09;75.24;97113.02;618260;229;67064;-63
2022/08/11 08:20:39;;;;;;;;;;;;;;;24.09;75.52;97101.46;621402;226;62900;-62
2022/08/11 08:23:07;;;;;;;;;;;;;;;24.08;75.59;97106.03;623253;226;66877;-63
2022/08/11 08:25:36;;;;;;;;;;;;;;;24.09;75.53;97101.46;620546;226;64575;-64
2022/08/11 08:28:05;;;;;;;;;;;;;;;24.08;75.40;97110.61;619608;229;65242;-64
2022/08/11 08:30:54;;;;;;;;;;;;;;;24.08;75.31;97105.24;619584;229;64229;-63
2022/08/11 08:33:22;;;;;;;;;;;;;;;24.07;74.91;97109.81;619411;228;66802;-65
2022/08/11 08:35:51;;;;;;;;;;;;;;;24.07;74.82;97109.81;619452;229;62674;-67
2022/08/11 08:38:19;;;;;;;;;;;;;;;24.08;74.76;97110.61;619479;228;64747;-65
2022/08/11 08:40:47;;;;;;;;;;;;;;;24.07;74.87;97109.81;619591;229;66837;-66
2022/08/11 08:43:17;;;;;;;;;;;;;;;24.07;74.83;97104.45;619543;229;63415;-65
2022/08/11 08:45:45;;;;;;;;;;;;;;;24.07;74.87;97104.45;619491;229;66825;-65
2022/08/11 08:48:14;;;;;;;;;;;;;;;24.08;75.02;97105.24;619536;229;66871;-65
2022/08/11 08:53:39;;;;;;;;;;;;;;;24.07;75.18;97092.92;619556;229;64428;-66
2022/08/11 08:56:07;;;;;;;;;;;;;;;24.07;75.24;97088.34;619587;229;66831;-66
2022/08/11 08:58:36;;;;;;;;;;;;;;;24.07;75.28;97093.71;619507;229;65017;-65
2022/08/11 09:01:04;;;;;;;;;;;;;;;24.07;75.22;97093.71;619475;229;64309;-65
2022/08/11 09:03:33;;;;;;;;;;;;;;;24.08;75.26;97089.13;619520;229;64574;-65
2022/08/11 09:06:01;;;;;;;;;;;;;;;24.07;75.27;97093.71;619518;228;62768;-65
2022/08/11 09:08:30;;;;;;;;;;;;;;;24.07;75.35;97088.34;619561;229;64152;-65
2022/08/11 09:13:45;;;;;;;;;;;;;;;24.07;75.42;97080.28;619502;229;63016;-65
2022/08/11 09:16:13;;;;;;;;;;;;;;;24.08;75.40;97078.39;619526;229;64552;-66
2022/08/11 09:18:46;;;;;;;;;;;;;;;24.08;75.45;97083.77;615284;229;64237;-64
2022/08/11 09:21:13;;;;;;;;;;;;;;;24.08;75.42;97078.39;615003;229;65154;-64
2022/08/11 09:29:13;;;;;;;;;;;;;;;24.07;75.20;97069.55;614993;230;66081;-64
2022/08/11 09:31:41;;;;;;;;;;;;;;;24.07;75.25;97068.76;615061;230;66787;-65
2022/08/11 09:34:10;;;;;;;;;;;;;;;24.07;75.29;97072.23;615052;230;66853;-64
2022/08/11 09:42:11;;;;;;;;;;;;;;;24.07;75.37;97066.86;614982;230;66623;-62
2022/08/11 09:44:48;;;;;;;;;;;;;;;24.07;75.34;97064.18;615033;230;65359;-62
2022/08/11 09:47:23;;;;;;;;;;;;;;;24.06;75.33;97054.54;615047;230;64712;-62
2022/08/11 09:49:52;;;;;;;;;;;;;;;24.06;75.23;97049.17;615014;230;66618;-60
2022/08/11 09:52:21;;;;;;;;;;;;;;;24.07;75.19;97058.02;615050;230;65164;-61
2022/08/11 09:54:50;;;;;;;;;;;;;;;24.07;75.19;97047.28;614918;230;67166;-61
2022/08/11 10:00:06;;;;;;;;;;;;;;;24.06;75.03;97043.80;615170;230;63040;-63
2022/08/11 10:02:35;;;;;;;;;;;;;;;24.07;75.12;97044.59;615031;230;67001;-64
2022/08/11 10:07:51;;;;;;;;;;;;;;;24.07;75.28;97037.33;615100;230;65203;-64
2022/08/11 10:10:21;;;;;;;;;;;;;;;24.08;75.33;97043.49;615146;230;66530;-64
2022/08/11 10:12:51;;;;;;;;;;;;;;;24.06;75.31;97049.17;615054;230;64096;-64
2022/08/11 10:15:34;;;;;;;;;;;;;;;24.07;75.33;97045.39;615071;229;62954;-64
2022/08/11 10:20:53;;;;;;;;;;;;;;;24.06;75.26;97043.80;615893;228;64405;-64
2022/08/11 10:28:53;;;;;;;;;;;;;;;24.07;75.37;97029.28;622173;228;66606;-63
2022/08/11 10:34:08;;;;;;;;;;;;;;;24.07;75.36;97023.91;622066;228;64401;-62
2022/08/11 10:37:01;;;;;;;;;;;;;;;24.07;75.26;97034.65;622174;228;67573;-64
2022/08/11 10:39:07;;;;;;;;;;;;;;;24.06;75.34;97016.95;618864;228;62773;-65
2022/08/11 10:44:22;;;;;;;;;;;;;;;24.07;75.45;97025.80;622120;228;66979;-65
2022/08/11 10:49:35;;;;;;;;;;;;;;;24.07;75.30;97020.44;622040;228;64622;-64
2022/08/11 11:00:21;;;;;;;;;;;;;;;24.07;75.15;97015.06;621679;228;66764;-65
2022/08/11 11:02:48;;;;;;;;;;;;;;;24.06;75.30;97005.39;620889;228;66162;-65
2022/08/11 11:05:17;;;;;;;;;;;;;;;24.07;75.38;97015.86;620916;228;66484;-64
2022/08/11 11:07:50;;;;;;;;;;;;;;;24.07;75.49;97007.80;621592;227;66824;-64
2022/08/11 11:10:17;;;;;;;;;;;;;;;24.06;75.52;97000.02;617034;228;63812;-65
2022/08/11 11:18:21;;;;;;;;;;;;;;;24.06;75.61;96987.42;625565;226;63033;-66
2022/08/11 11:20:50;;;;;;;;;;;;;;;24.06;75.68;96984.74;626730;226;64524;-68
2022/08/11 11:23:28;;;;;;;;;;;;;;;24.06;75.85;96979.38;626443;226;64312;-65
2022/08/11 11:26:09;;;;;;;;;;;;;;;24.06;72.37;96994.66;620151;226;63034;-65
2022/08/11 11:28:53;;;;;;;;;;;;;;;24.08;71.67;96992.48;626644;226;67401;-64
2022/08/11 11:31:28;;;;;;;;;;;;;;;24.10;74.64;96985.73;626737;226;66909;-63
2022/08/11 11:34:14;;;;;;;;;;;;;;;24.10;75.82;96991.11;626658;226;62948;-62
2022/08/11 11:36:46;;;;;;;;;;;;;;;24.10;76.50;96984.95;626667;226;67184;-63
2022/08/11 11:39:15;;;;;;;;;;;;;;;24.09;76.93;96984.16;626722;226;66869;-63
2022/08/11 11:41:43;;;;;;;;;;;;;;;24.09;77.11;96977.96;626737;226;65136;-63
2022/08/11 11:44:12;;;;;;;;;;;;;;;24.08;77.33;96981.75;626686;226;67237;-63
2022/08/11 11:46:43;;;;;;;;;;;;;;;24.09;77.55;96975.28;626751;226;67066;-63
2022/08/11 11:49:11;;;;;;;;;;;;;;;24.09;77.64;96975.28;626806;226;64872;-65
2022/08/11 11:51:38;;;;;;;;;;;;;;;24.09;77.73;96976.10;626655;226;65739;-63
2022/08/11 11:54:06;;;;;;;;;;;;;;;24.08;77.43;96971.80;626725;226;64605;-67
2022/08/11 11:56:35;;;;;;;;;;;;;;;24.08;77.68;96977.17;626592;226;65111;-64
2022/08/11 12:01:49;;;;;;;;;;;;;;;24.09;77.62;96978.78;626506;226;64808;-63
2022/08/11 12:04:18;;;;;;;;;;;;;;;24.09;77.35;96977.96;626680;226;65251;-62
2022/08/11 12:06:46;;;;;;;;;;;;;;;24.09;77.25;96977.96;626675;226;65125;-62
2022/08/11 12:09:17;;;;;;;;;;;;;;;24.09;77.11;96973.41;626768;226;64786;-63
2022/08/11 12:14:29;;;;;;;;;;;;;;;24.09;77.12;96968.05;626653;226;65688;-64
2022/08/11 12:16:57;;;;;;;;;;;;;;;24.08;77.01;96963.75;626760;226;65031;-64
2022/08/11 12:19:27;;;;;;;;;;;;;;;24.09;76.99;96970.73;626710;226;65017;-63
2022/08/11 12:27:27;;;;;;;;;;;;;;;24.09;77.04;96961.85;626219;226;62953;-65
2022/08/11 12:29:59;;;;;;;;;;;;;;;24.08;76.98;96946.84;625554;226;67261;-64
2022/08/11 12:32:30;;;;;;;;;;;;;;;24.09;76.97;96951.12;626081;226;66791;-64
2022/08/11 12:35:00;;;;;;;;;;;;;;;24.09;76.91;96949.25;626303;226;63866;-64
2022/08/11 12:37:28;;;;;;;;;;;;;;;24.09;76.83;96948.43;619937;226;65082;-64
2022/08/11 12:45:30;;;;;;;;;;;;;;;24.09;76.82;96938.52;626724;226;64582;-65
2022/08/11 12:53:54;;;;;;;;;;;;;;;24.08;76.80;96934.22;626679;226;67187;-64
2022/08/11 13:04:55;;;;;;;;;;;;;;;24.08;76.75;96930.73;626640;226;66923;-64
2022/08/11 13:07:22;;;;;;;;;;;;;;;24.09;75.48;96940.38;626760;226;65082;-65
2022/08/11 13:09:51;;;;;;;;;;;;;;;24.10;76.82;96931.25;626657;226;67357;-66
2022/08/11 13:15:05;;;;;;;;;;;;;;;24.09;77.26;96922.41;626745;226;63002;-67
2022/08/11 13:17:33;;;;;;;;;;;;;;;24.09;77.52;96921.59;624438;226;64978;-68
2022/08/11 13:20:01;;;;;;;;;;;;;;;24.09;77.61;96918.90;622088;228;67366;-64
2022/08/11 13:22:29;;;;;;;;;;;;;;;24.09;77.65;96914.35;622076;228;65057;-65
2022/08/11 13:24:57;;;;;;;;;;;;;;;24.09;76.36;96919.72;622110;228;67192;-69
2022/08/11 13:27:25;;;;;;;;;;;;;;;24.10;76.69;96915.94;622108;228;66895;-67
2022/08/11 13:31:09;;;;;;;;;;;;;;;24.10;77.41;96913.25;622115;228;62600;-66
2022/08/11 13:32:25;;;;;;;;;;;;;;;24.10;77.27;96918.62;621514;228;64839;-67
2022/08/11 13:34:52;;;;;;;;;;;;;;;24.10;77.06;96907.88;622147;228;64905;-66
2022/08/11 13:37:19;;;;;;;;;;;;;;;24.11;77.12;96912.15;622175;228;65043;-66
2022/08/11 13:39:47;;;;;;;;;;;;;;;24.11;77.12;96905.98;622072;228;64403;-66
2022/08/11 13:42:20;;;;;;;;;;;;;;;24.12;77.43;96904.91;622155;228;64817;-65
2022/08/11 13:44:48;;;;;;;;;;;;;;;24.12;77.43;96903.02;621978;228;64891;-66
2022/08/11 13:47:15;;;;;;;;;;;;;;;24.12;77.72;96903.02;621985;228;67278;-66
2022/08/11 13:49:44;;;;;;;;;;;;;;;24.12;77.80;96904.91;622071;228;66910;-66
2022/08/11 13:52:13;;;;;;;;;;;;;;;24.12;77.79;96902.23;622033;228;63082;-67
2022/08/11 13:54:42;;;;;;;;;;;;;;;24.12;77.94;96905.70;622078;228;64833;-66
2022/08/11 13:57:11;;;;;;;;;;;;;;;24.12;78.02;96899.55;622094;228;67220;-66
2022/08/11 13:59:39;;;;;;;;;;;;;;;24.12;78.18;96892.28;622063;228;63039;-66
2022/08/11 14:02:09;;;;;;;;;;;;;;;24.11;73.27;96893.36;622077;228;67256;-66
2022/08/11 14:04:38;;;;;;;;;;;;;;;24.17;74.55;96893.27;622120;227;67017;-66
2022/08/11 14:07:07;;;;;;;;;;;;;;;24.19;76.85;96896.47;622130;228;65396;-68
2022/08/11 14:09:36;;;;;;;;;;;;;;;24.20;77.00;96914.16;622095;228;67114;-66
2022/08/11 14:14:53;;;;;;;;;;;;;;;24.21;76.94;96913.09;621957;228;62608;-70
2022/08/11 14:17:21;;;;;;;;;;;;;;;24.21;76.76;96900.45;621820;226;67207;-66
2022/08/11 14:19:50;;;;;;;;;;;;;;;24.25;71.64;96906.02;622153;228;66967;-66
2022/08/11 14:22:20;;;;;;;;;;;;;;;24.24;71.68;96915.97;622114;228;62753;-66
2022/08/11 14:24:51;;;;;;;;;;;;;;;24.23;73.23;96914.39;622114;228;67343;-67
2022/08/11 14:27:25;;;;;;;;;;;;;;;24.20;75.40;96912.30;622179;228;66304;-66
2022/08/11 14:29:49;;;;;;;;;;;;;;;24.20;76.38;96919.53;621983;227;62724;-66
2022/08/11 14:32:20;;;;;;;;;;;;;;;24.18;76.86;96914.47;622178;228;48019;-67
2022/08/11 14:34:48;;;;;;;;;;;;;;;24.18;76.93;96921.73;622126;228;67127;-68
2022/08/11 14:37:21;;;;;;;;;;;;;;;24.17;76.89;96920.91;622121;228;65000;-71
2022/08/11 14:39:53;;;;;;;;;;;;;;;24.17;76.85;96909.38;622167;228;67028;-71
2022/08/11 14:47:55;;;;;;;;;;;;;;;24.16;76.95;96919.33;622035;228;64541;-68
2022/08/11 14:50:24;;;;;;;;;;;;;;;24.17;77.07;96920.13;622045;228;66750;-65
2022/08/11 14:52:53;;;;;;;;;;;;;;;24.15;77.02;96913.17;621568;228;65227;-65
2022/08/11 14:58:09;;;;;;;;;;;;;;;24.15;77.11;96913.17;622037;228;64672;-65
2022/08/11 15:00:38;;;;;;;;;;;;;;;24.15;77.07;96910.48;622091;228;64990;-68
2022/08/11 15:03:10;;;;;;;;;;;;;;;24.15;77.04;96910.48;622011;228;67469;-68
2022/08/11 15:05:40;;;;;;;;;;;;;;;24.15;77.07;96905.12;622096;228;67046;-66
2022/08/11 15:08:08;;;;;;;;;;;;;;;24.15;77.07;96905.12;622116;227;62730;-68
2022/08/11 15:10:36;;;;;;;;;;;;;;;24.15;77.07;96905.12;622083;228;67062;-67
2022/08/11 15:13:04;;;;;;;;;;;;;;;24.16;76.99;96905.91;622091;228;66915;-67
2022/08/11 15:18:22;;;;;;;;;;;;;;;24.17;76.91;96912.07;622071;226;64742;-67
2022/08/11 15:37:25;;;;;;;;;;;;;;;24.15;76.93;96907.80;622060;228;67437;-68
2022/08/11 15:37:25;;;;;;;;;;;;;;;24.16;77.04;96908.59;622200;228;47683;-68
2022/08/11 15:45:49;;;;;;;;;;;;;;;24.15;77.19;96907.80;622146;228;66826;-66
2022/08/11 15:48:27;;;;;;;;;;;;;;;24.15;77.20;96910.48;621999;228;65122;-66
2022/08/11 15:50:56;;;;;;;;;;;;;;;24.13;74.31;96909.97;621663;228;67229;-66
2022/08/11 15:53:25;;;;;;;;;;;;;;;24.15;75.53;96909.70;622144;228;65111;-67
2022/08/11 15:55:54;;;;;;;;;;;;;;;24.15;76.35;96910.48;622185;228;65813;-67
2022/08/11 16:04:12;;;;;;;;;;;;;;;24.14;77.18;96916.13;622204;228;63047;-67
2022/08/11 16:06:51;;;;;;;;;;;;;;;24.13;77.28;96911.87;622134;228;67305;-67
2022/08/11 16:09:20;;;;;;;;;;;;;;;24.13;77.33;96915.34;622209;228;64830;-67
2022/08/11 16:11:48;;;;;;;;;;;;;;;24.13;77.38;96909.19;622193;228;65154;-67
2022/08/11 16:17:04;;;;;;;;;;;;;;;24.11;77.39;96917.52;622062;226;67343;-67
2022/08/11 16:19:34;;;;;;;;;;;;;;;24.12;75.14;96919.13;615574;228;65975;-67
2022/08/11 16:22:06;;;;;;;;;;;;;;;24.14;75.82;96922.33;614726;230;65147;-66
2022/08/11 16:24:35;;;;;;;;;;;;;;;24.14;77.52;96930.38;614259;230;66887;-66
2022/08/11 16:27:04;;;;;;;;;;;;;;;24.13;77.68;96925.30;614976;230;65026;-66
2022/08/11 16:29:35;;;;;;;;;;;;;;;24.11;77.68;96922.89;615165;230;67191;-66
2022/08/11 16:32:19;;;;;;;;;;;;;;;24.11;77.61;96920.20;615154;230;65641;-68
2022/08/11 16:40:21;;;;;;;;;;;;;;;24.11;77.40;96924.78;615180;230;64699;-67
2022/08/11 16:48:23;;;;;;;;;;;;;;;24.10;77.47;96932.05;615142;230;66902;-65
2022/08/11 16:50:50;;;;;;;;;;;;;;;24.09;77.43;96930.45;615136;230;63217;-65
2022/08/11 16:53:18;;;;;;;;;;;;;;;24.09;77.41;96930.45;615147;230;67346;-65
2022/08/11 16:55:46;;;;;;;;;;;;;;;24.09;77.35;96935.01;615098;230;67056;-65
2022/08/11 17:01:01;;;;;;;;;;;;;;;24.09;77.27;96940.38;615200;230;64953;-65
2022/08/11 17:14:40;;;;;;;;;;;;;;;24.08;77.30;96961.06;615150;230;65158;-66
2022/08/11 17:17:08;;;;;;;;;;;;;;;24.09;77.34;96959.17;615045;229;67966;-66
2022/08/11 17:19:37;;;;;;;;;;;;;;;24.08;77.37;96955.69;615058;229;66925;-65
2022/08/11 17:24:53;;;;;;;;;;;;;;;24.08;77.36;96966.44;615116;230;68084;-65
2022/08/11 17:27:21;;;;;;;;;;;;;;;24.07;77.34;96964.84;615102;230;67071;-65
2022/08/11 17:29:54;;;;;;;;;;;;;;;24.07;77.40;96964.84;615175;230;62792;-65
2022/08/11 17:35:29;;;;;;;;;;;;;;;24.08;77.41;96968.33;609637;229;67665;-65
2022/08/11 17:37:55;;;;;;;;;;;;;;;24.08;77.42;96971.01;614983;229;67714;-65
2022/08/11 17:40:24;;;;;;;;;;;;;;;24.07;77.47;96972.90;615207;230;67447;-65
2022/08/11 17:48:30;;;;;;;;;;;;;;;24.07;77.48;96972.90;615133;230;67345;-64
2022/08/11 17:50:59;;;;;;;;;;;;;;;24.06;77.54;96973.18;615116;230;66999;-64
2022/08/11 18:01:51;;;;;;;;;;;;;;;24.05;77.54;96988.49;615172;230;65340;-67
2022/08/11 18:04:21;;;;;;;;;;;;;;;24.06;77.51;96990.11;615103;230;67345;-68
2022/08/11 18:06:49;;;;;;;;;;;;;;;24.06;77.55;97000.02;615152;230;67038;-67
